Time;durP1;ratioP1;P1;durP2;ratioP2;P2;SDS_P1;SDS_P2;PMS_P1;PMS_P2;Temp;Humidity;BMP_temperature;BMP_pressure;BME280_temperature;BME280_humidity;BME280_pressure;Samples;Min_cycle;Max_cycle;Signal;HPM_P1;HPM_P2
2022/03/16 00:01:03;;;;;;;17.98;8.20;;;;;;;12.75;30.50;99101.53;4501601;31;20124;-80
2022/03/16 00:03:29;;;;;;;19.95;8.75;;;;;;;12.71;30.55;99090.28;4501739;31;20494;-81
2022/03/16 00:05:54;;;;;;;20.17;8.63;;;;;;;12.59;31.03;99059.25;4487055;31;20100;-81
2022/03/16 00:08:20;;;;;;;17.33;8.85;;;;;;;12.67;30.95;99056.16;4501848;31;20080;-79
2022/03/16 00:10:45;;;;;;;19.85;8.82;;;;;;;12.62;30.75;99050.31;4501553;31;20111;-79
2022/03/16 00:13:10;;;;;;;18.40;8.48;;;;;;;12.56;30.61;99051.53;4501279;31;20084;-79
2022/03/16 00:15:36;;;;;;;20.55;9.13;;;;;;;12.56;30.78;99054.16;4501738;31;20096;-79
2022/03/16 00:18:01;;;;;;;18.65;8.10;;;;;;;12.62;30.53;99048.50;4501537;31;20096;-79
2022/03/16 00:20:27;;;;;;;19.12;8.50;;;;;;;12.62;30.38;99047.66;4501390;31;20367;-79
2022/03/16 00:22:52;;;;;;;20.85;9.60;;;;;;;12.48;30.57;99051.97;4461745;32;20415;-80
2022/03/16 00:25:18;;;;;;;19.27;8.77;;;;;;;12.48;30.32;99043.19;4486752;31;20168;-81
2022/03/16 00:27:43;;;;;;;20.65;10.07;;;;;;;12.48;30.83;99044.03;4487056;32;20144;-80
2022/03/16 00:30:10;;;;;;;18.77;8.90;;;;;;;12.39;30.54;99044.56;4486804;32;20490;-79
2022/03/16 00:32:35;;;;;;;20.10;9.73;;;;;;;12.49;31.02;99031.66;4472641;32;20107;-81
2022/03/16 00:35:00;;;;;;;21.17;9.60;;;;;;;12.42;31.44;99038.25;4472662;32;20108;-80
2022/03/16 00:37:27;;;;;;;22.20;10.10;;;;;;;12.04;32.70;99041.31;4486942;32;20121;-81
2022/03/16 00:39:52;;;;;;;22.40;10.40;;;;;;;12.20;32.54;99032.41;4495082;31;20084;-90
2022/03/16 00:42:18;;;;;;;20.08;10.48;;;;;;;11.96;34.48;99031.19;4491910;31;20442;-87
2022/03/16 00:44:43;;;;;;;21.45;10.80;;;;;;;12.24;35.95;99024.31;4487116;32;20160;-86
2022/03/16 00:47:09;;;;;;;20.70;10.77;;;;;;;12.24;35.94;99021.69;4486813;32;20133;-83
2022/03/16 00:49:34;;;;;;;23.05;11.10;;;;;;;12.32;36.33;99025.59;4486973;32;20088;-84
2022/03/16 00:52:00;;;;;;;21.17;9.60;;;;;;;12.20;36.47;99018.34;4486795;32;20076;-83
2022/03/16 00:54:26;;;;;;;24.55;11.20;;;;;;;12.19;37.34;99016.66;4486742;32;20096;-84
2022/03/16 00:56:51;;;;;;;22.08;11.00;;;;;;;12.12;37.81;99010.03;4486748;32;20337;-83
2022/03/16 00:59:17;;;;;;;22.05;11.05;;;;;;;11.98;38.04;99008.19;4471128;32;20145;-83
2022/03/16 01:01:42;;;;;;;26.25;11.48;;;;;;;12.14;38.44;99002.87;4472357;32;20105;-81
2022/03/16 01:04:07;;;;;;;22.25;10.45;;;;;;;12.14;38.25;98998.44;4486879;32;20088;-82
2022/03/16 01:06:33;;;;;;;21.15;10.50;;;;;;;11.99;38.98;98994.03;4472470;32;20175;-82
2022/03/16 01:08:58;;;;;;;21.05;10.68;;;;;;;12.08;38.95;98996.16;4489789;31;20348;-82
2022/03/16 01:11:24;;;;;;;22.98;10.55;;;;;;;12.07;39.22;98991.81;4483174;31;20390;-84
2022/03/16 01:13:49;;;;;;;21.85;10.23;;;;;;;12.03;39.19;98990.28;4481379;32;20170;-85
2022/03/16 01:16:14;;;;;;;26.58;10.10;;;;;;;12.11;39.42;99000.38;4486718;31;20139;-84
2022/03/16 01:18:40;;;;;;;18.25;9.50;;;;;;;12.00;40.25;98993.94;4487887;31;20103;-84
2022/03/16 01:21:06;;;;;;;19.70;10.18;;;;;;;12.16;40.20;98993.91;4498868;31;20095;-82
2022/03/16 01:23:33;;;;;;;21.12;9.73;;;;;;;12.04;41.04;98996.44;4485399;32;20134;-81
2022/03/16 01:25:59;;;;;;;20.92;9.77;;;;;;;12.18;41.02;99001.75;4486741;31;20096;-82
2022/03/16 01:28:24;;;;;;;22.52;10.48;;;;;;;12.15;41.12;99015.16;4485306;32;20492;-82
2022/03/16 01:30:50;;;;;;;20.17;9.13;;;;;;;11.94;41.82;99015.44;4498288;31;20072;-81
2022/03/16 01:33:15;;;;;;;18.85;9.30;;;;;;;12.11;41.57;99021.53;4502058;31;20084;-81
2022/03/16 01:35:41;;;;;;;18.45;9.23;;;;;;;12.16;41.48;99017.69;4502175;31;20462;-82
2022/03/16 01:38:06;;;;;;;18.90;8.90;;;;;;;12.20;41.78;99015.72;4502254;31;20124;-82
2022/03/16 01:40:31;;;;;;;18.85;9.18;;;;;;;12.19;41.93;99024.59;4502017;31;20099;-81
2022/03/16 01:42:57;;;;;;;17.67;8.88;;;;;;;12.27;42.06;99026.81;4502133;31;20084;-81
2022/03/16 01:45:22;;;;;;;19.17;9.05;;;;;;;12.32;42.10;99030.88;4484400;31;20120;-82
2022/03/16 01:47:48;;;;;;;18.87;8.82;;;;;;;12.03;42.46;99035.16;4491544;31;20105;-82
2022/03/16 01:50:13;;;;;;;17.65;9.13;;;;;;;12.19;41.86;99025.44;4484856;32;20436;-82
2022/03/16 01:52:39;;;;;;;21.02;9.27;;;;;;;12.18;42.26;99025.53;4499439;31;20111;-81
2022/03/16 01:55:05;;;;;;;18.85;9.57;;;;;;;12.24;41.57;99035.72;4474241;31;20425;-81
2022/03/16 01:57:33;;;;;;;19.42;8.85;;;;;;;12.42;41.29;99028.56;4501623;31;20088;-83
2022/03/16 01:59:58;;;;;;;19.90;9.88;;;;;;;12.35;41.82;99028.03;4501836;31;20123;-82
2022/03/16 02:02:24;;;;;;;19.20;9.77;;;;;;;12.25;42.15;99033.97;4494455;31;20088;-82
2022/03/16 02:04:49;;;;;;;19.70;9.88;;;;;;;12.24;42.44;99033.09;4486107;31;20144;-83
2022/03/16 02:07:15;;;;;;;19.12;9.07;;;;;;;12.21;42.52;99022.72;4487363;31;20344;-83
2022/03/16 02:09:40;;;;;;;20.17;10.23;;;;;;;12.27;43.08;99038.22;4487929;31;20107;-82
2022/03/16 02:12:07;;;;;;;22.85;10.98;;;;;;;12.10;42.65;99036.53;4489273;31;20165;-82
2022/03/16 02:14:32;;;;;;;18.10;9.35;;;;;;;12.19;42.70;99029.88;4503598;31;20117;-83
2022/03/16 02:16:58;;;;;;;20.55;11.10;;;;;;;12.35;42.65;99020.13;4503802;31;20089;-83
2022/03/16 02:19:24;;;;;;;20.15;10.23;;;;;;;12.27;42.65;99027.63;4503536;31;20092;-85
2022/03/16 02:21:55;;;;;;;18.50;9.15;;;;;;;12.34;42.37;99018.44;4503462;31;20092;-85
2022/03/16 02:24:23;;;;;;;22.60;9.82;;;;;;;12.42;42.08;99010.06;4503720;31;20110;-85
2022/03/16 02:26:48;;;;;;;21.85;10.30;;;;;;;12.40;42.24;99011.94;4503473;31;20883;-84
2022/03/16 02:29:13;;;;;;;19.20;10.25;;;;;;;12.42;42.25;99004.78;4489259;31;20076;-84
2022/03/16 02:31:39;;;;;;;20.80;10.13;;;;;;;12.47;42.03;98999.22;4503335;31;20119;-84
2022/03/16 02:34:04;;;;;;;20.60;10.43;;;;;;;12.46;42.13;98998.38;4489118;31;20122;-84
2022/03/16 02:36:30;;;;;;;21.52;10.95;;;;;;;12.43;42.59;98997.69;4503583;31;20079;-84
2022/03/16 02:38:55;;;;;;;21.70;10.25;;;;;;;12.42;42.71;98982.75;4489119;31;20088;-84
2022/03/16 02:41:20;;;;;;;18.33;10.45;;;;;;;12.43;42.55;98966.81;4503362;31;20150;-83
2022/03/16 02:43:46;;;;;;;21.30;10.68;;;;;;;12.51;42.29;98969.84;4489148;31;20108;-83
2022/03/16 02:46:11;;;;;;;18.98;10.05;;;;;;;12.44;42.64;98965.91;4503456;31;20467;-83
2022/03/16 02:48:36;;;;;;;20.23;10.50;;;;;;;12.44;42.40;98957.97;4489179;31;20106;-84
2022/03/16 02:51:03;;;;;;;20.77;10.88;;;;;;;12.44;42.55;98954.47;4502690;31;20088;-84
2022/03/16 02:53:28;;;;;;;24.35;10.80;;;;;;;12.43;42.68;98952.78;4496339;31;20131;-83
2022/03/16 02:55:54;;;;;;;20.20;9.52;;;;;;;12.36;42.74;98958.44;4473221;32;20096;-83
2022/03/16 02:58:19;;;;;;;20.95;10.40;;;;;;;12.43;42.05;98948.31;4487748;32;20158;-83
2022/03/16 03:00:45;;;;;;;19.98;9.90;;;;;;;12.47;41.62;98951.66;4487402;32;20097;-83
2022/03/16 03:03:11;;;;;;;18.15;9.50;;;;;;;12.50;41.54;98949.69;4473139;32;20440;-83
2022/03/16 03:05:37;;;;;;;18.42;9.80;;;;;;;12.50;41.86;98940.91;4488244;31;20088;-84
2022/03/16 03:08:03;;;;;;;18.52;9.70;;;;;;;12.46;42.20;98936.72;4503227;31;20092;-83
2022/03/16 03:10:28;;;;;;;19.23;10.13;;;;;;;12.48;42.23;98942.78;4488845;31;20160;-84
2022/03/16 03:12:54;;;;;;;20.75;10.85;;;;;;;12.45;42.52;98945.59;4503387;31;20085;-83
2022/03/16 03:15:19;;;;;;;22.30;11.00;;;;;;;12.54;42.39;98939.78;4489168;31;20148;-83
2022/03/16 03:17:45;;;;;;;21.23;10.77;;;;;;;12.46;43.01;98934.06;4503383;31;20103;-82
2022/03/16 03:20:12;;;;;;;19.77;10.20;;;;;;;12.51;43.46;98924.94;4489312;31;20096;-82
2022/03/16 03:22:37;;;;;;;18.42;10.32;;;;;;;12.54;44.06;98905.41;4502748;31;20161;-81
2022/03/16 03:25:03;;;;;;;21.25;10.75;;;;;;;12.59;44.63;98896.28;4503205;31;20439;-82
2022/03/16 03:27:30;;;;;;;22.02;11.25;;;;;;;12.63;45.44;98894.25;4475787;31;20088;-82
2022/03/16 03:29:56;;;;;;;20.37;11.20;;;;;;;12.56;46.03;98885.88;4503467;31;20092;-81
2022/03/16 03:32:21;;;;;;;22.20;10.43;;;;;;;12.56;46.05;98879.75;4503134;31;20080;-82
2022/03/16 03:34:50;;;;;;;22.20;10.48;;;;;;;12.49;46.08;98870.50;4488604;31;20122;-82
2022/03/16 03:37:15;;;;;;;19.60;10.45;;;;;;;12.52;46.21;98867.66;4502945;31;20096;-81
2022/03/16 03:39:41;;;;;;;21.08;10.57;;;;;;;12.49;46.32;98857.28;4503173;31;20100;-82
2022/03/16 03:42:07;;;;;;;20.23;10.20;;;;;;;12.46;46.57;98860.09;4488683;31;20126;-81
2022/03/16 03:44:37;;;;;;;20.42;11.20;;;;;;;12.50;46.56;98848.41;4502893;31;20395;-81
2022/03/16 03:47:05;;;;;;;23.20;11.35;;;;;;;12.45;46.23;98845.19;4503013;31;20092;-82
2022/03/16 03:49:35;;;;;;;18.05;10.32;;;;;;;12.43;45.93;98831.25;4488504;31;20104;-82
2022/03/16 03:52:02;;;;;;;18.42;10.13;;;;;;;12.46;46.02;98831.03;4503216;31;20129;-82
2022/03/16 03:54:27;;;;;;;17.70;9.48;;;;;;;12.41;45.60;98823.41;4488739;31;20088;-81
2022/03/16 03:56:53;;;;;;;19.75;10.40;;;;;;;12.43;45.59;98821.50;4501603;31;20118;-82
2022/03/16 03:59:19;;;;;;;21.92;10.63;;;;;;;12.39;45.72;98810.28;4481324;32;20124;-81
2022/03/16 04:01:45;;;;;;;22.67;11.25;;;;;;;12.40;45.71;98811.16;4487100;32;20148;-81
2022/03/16 04:04:11;;;;;;;21.77;11.30;;;;;;;12.30;45.76;98805.56;4487445;32;20149;-81
2022/03/16 04:06:36;;;;;;;20.83;11.02;;;;;;;12.28;45.52;98803.97;4464394;32;20420;-83
2022/03/16 04:09:01;;;;;;;20.88;10.40;;;;;;;12.26;45.54;98801.41;4459942;32;20101;-84
2022/03/16 04:11:27;;;;;;;20.55;10.70;;;;;;;12.26;45.83;98801.41;4487212;32;20393;-83
2022/03/16 04:13:52;;;;;;;22.33;10.65;;;;;;;12.35;45.90;98808.78;4486019;32;20092;-82
2022/03/16 04:16:18;;;;;;;20.90;10.52;;;;;;;12.26;46.18;98798.75;4487390;32;20563;-82
2022/03/16 04:18:43;;;;;;;21.33;11.32;;;;;;;12.34;46.28;98798.28;4473024;32;20475;-83
2022/03/16 04:21:08;;;;;;;22.65;11.35;;;;;;;12.32;47.03;98793.12;4487034;32;20427;-82
2022/03/16 04:23:34;;;;;;;19.23;10.35;;;;;;;12.37;48.52;98796.31;4473029;32;20128;-84
2022/03/16 04:25:59;;;;;;;20.05;10.57;;;;;;;12.37;49.20;98785.75;4487328;32;20108;-85
2022/03/16 04:28:25;;;;;;;20.15;10.90;;;;;;;12.17;50.47;98778.22;4487280;32;20080;-85
2022/03/16 04:30:51;;;;;;;21.75;10.63;;;;;;;12.15;49.73;98767.75;4473079;32;20118;-85
2022/03/16 04:33:17;;;;;;;21.10;11.40;;;;;;;11.92;51.40;98781.50;4472768;32;20424;-83
2022/03/16 04:35:43;;;;;;;21.60;11.30;;;;;;;11.78;51.92;98782.28;4487270;32;20104;-82
2022/03/16 04:38:08;;;;;;;25.35;13.23;;;;;;;11.81;51.07;98785.59;4487163;32;20089;-82
2022/03/16 04:40:34;;;;;;;23.42;12.68;;;;;;;11.85;49.70;98794.16;4472930;32;20105;-83
2022/03/16 04:42:59;;;;;;;25.70;14.13;;;;;;;11.83;48.90;98793.41;4487437;32;20132;-81
2022/03/16 04:45:25;;;;;;;26.67;14.45;;;;;;;11.71;48.84;98805.56;4487026;32;20360;-82
2022/03/16 04:47:51;;;;;;;28.10;14.07;;;;;;;11.76;48.87;98803.50;4473029;32;20096;-82
2022/03/16 04:50:16;;;;;;;25.15;13.13;;;;;;;11.81;49.01;98804.06;4459514;32;20127;-82
2022/03/16 04:52:43;;;;;;;22.50;13.05;;;;;;;11.75;49.33;98806.22;4486883;32;20484;-82
2022/03/16 04:55:09;;;;;;;24.37;12.77;;;;;;;11.64;49.93;98813.91;4486742;32;20428;-82
2022/03/16 04:57:34;;;;;;;23.80;11.82;;;;;;;11.75;50.06;98825.53;4459350;32;20124;-82
2022/03/16 05:00:00;;;;;;;22.50;12.00;;;;;;;11.63;50.59;98828.91;4486939;32;20432;-82
2022/03/16 05:02:25;;;;;;;23.65;11.57;;;;;;;11.56;50.45;98825.75;4486886;32;20095;-82
2022/03/16 05:04:51;;;;;;;24.15;12.63;;;;;;;11.57;50.53;98814.28;4496003;31;20083;-83
2022/03/16 05:07:16;;;;;;;26.62;12.65;;;;;;;11.50;51.22;98820.00;4472228;32;20097;-82
2022/03/16 05:09:41;;;;;;;22.15;11.55;;;;;;;11.53;50.93;98825.09;4492872;31;20114;-83
2022/03/16 05:12:07;;;;;;;20.92;11.63;;;;;;;11.54;51.05;98822.38;4488939;31;20084;-83
2022/03/16 05:14:33;;;;;;;24.45;12.68;;;;;;;11.58;51.19;98825.69;4486720;31;20080;-85
2022/03/16 05:16:58;;;;;;;23.62;12.35;;;;;;;11.62;50.95;98821.91;4486609;31;20092;-83
2022/03/16 05:19:25;;;;;;;24.65;12.40;;;;;;;11.63;50.83;98815.72;4485320;32;20154;-83
2022/03/16 05:21:50;;;;;;;24.73;12.23;;;;;;;11.60;49.80;98818.53;4486576;31;20106;-82
2022/03/16 05:24:17;;;;;;;21.62;9.93;;;;;;;11.64;49.98;98824.47;4485386;32;20084;-83
2022/03/16 05:26:43;;;;;;;21.23;10.63;;;;;;;11.63;49.94;98818.34;4486871;31;20512;-83
2022/03/16 05:29:08;;;;;;;18.70;9.68;;;;;;;11.61;49.75;98814.97;4486530;31;20081;-84
2022/03/16 05:31:34;;;;;;;20.25;10.32;;;;;;;11.77;49.29;98818.38;4486629;31;20084;-81
2022/03/16 05:33:59;;;;;;;19.50;10.05;;;;;;;11.68;49.31;98823.34;4486357;31;20116;-83
2022/03/16 05:36:24;;;;;;;18.73;9.45;;;;;;;11.67;48.98;98816.38;4486616;31;20085;-84
2022/03/16 05:38:50;;;;;;;26.75;10.48;;;;;;;11.73;48.86;98818.66;4485089;32;20096;-83
2022/03/16 05:41:16;;;;;;;20.40;9.85;;;;;;;11.70;49.18;98830.22;4486080;31;20118;-84
2022/03/16 05:43:42;;;;;;;20.48;10.15;;;;;;;11.73;49.21;98830.06;4484902;31;20118;-82
2022/03/16 05:46:07;;;;;;;22.62;10.68;;;;;;;11.75;49.48;98866.94;4485927;32;20121;-83
2022/03/16 05:48:33;;;;;;;24.00;12.02;;;;;;;11.79;49.49;98855.25;4486269;31;20088;-81
2022/03/16 05:50:58;;;;;;;25.20;13.73;;;;;;;11.67;50.36;98875.28;4486331;31;20092;-82
2022/03/16 05:53:23;;;;;;;23.98;13.07;;;;;;;11.67;49.77;98877.09;4485044;32;20927;-82
2022/03/16 05:55:49;;;;;;;22.75;10.70;;;;;;;11.62;49.79;98861.50;4484587;32;20096;-81
2022/03/16 05:58:14;;;;;;;21.40;10.82;;;;;;;11.40;50.95;98861.88;4485190;32;20443;-82
2022/03/16 06:00:42;;;;;;;19.90;10.85;;;;;;;11.60;49.79;98868.66;4486061;31;20150;-82
2022/03/16 06:03:07;;;;;;;21.50;10.93;;;;;;;11.67;49.66;98877.09;4484927;32;20077;-83
2022/03/16 06:05:33;;;;;;;19.58;10.30;;;;;;;11.54;50.05;98877.75;4486232;31;20092;-81
2022/03/16 06:07:59;;;;;;;20.25;10.63;;;;;;;11.67;50.06;98872.66;4487420;31;20108;-83
2022/03/16 06:10:25;;;;;;;19.87;10.57;;;;;;;11.47;51.37;98868.50;4492066;31;20716;-82
2022/03/16 06:13:01;;;;;;;21.95;11.43;;;;;;;11.71;50.96;98870.69;4485956;32;20072;-83
2022/03/16 06:15:28;;;;;;;21.08;11.30;;;;;;;11.91;51.14;98875.66;4485705;32;20085;-84
2022/03/16 06:17:55;;;;;;;20.05;10.55;;;;;;;11.93;50.89;98871.16;4471529;32;20088;-82
2022/03/16 06:20:21;;;;;;;21.05;10.73;;;;;;;11.86;51.15;98875.06;4485737;32;20158;-82
2022/03/16 06:22:47;;;;;;;20.90;11.02;;;;;;;12.10;50.04;98866.66;4485828;32;20080;-83
2022/03/16 06:25:12;;;;;;;19.98;11.00;;;;;;;12.10;50.33;98880.72;4485604;32;20118;-83
2022/03/16 06:27:38;;;;;;;22.00;10.75;;;;;;;12.28;50.00;98875.28;4485795;32;20114;-86
2022/03/16 06:30:04;;;;;;;19.48;10.80;;;;;;;12.06;50.20;98881.84;4485548;32;20080;-85
2022/03/16 06:32:29;;;;;;;20.85;11.15;;;;;;;12.20;50.52;98886.31;4485692;32;20360;-84
2022/03/16 06:34:55;;;;;;;20.60;11.27;;;;;;;12.11;51.17;98885.06;4485515;32;20110;-85
2022/03/16 06:37:20;;;;;;;23.30;11.60;;;;;;;12.24;50.59;98876.41;4485559;32;20135;-86
2022/03/16 06:39:46;;;;;;;22.60;11.35;;;;;;;12.32;50.56;98885.59;4485506;32;20088;-82
2022/03/16 06:42:12;;;;;;;19.12;10.73;;;;;;;12.20;50.65;98894.22;4485687;32;20072;-82
2022/03/16 06:44:37;;;;;;;21.92;10.80;;;;;;;12.28;50.29;98888.47;4471442;32;20145;-83
2022/03/16 06:47:03;;;;;;;18.87;10.05;;;;;;;12.37;50.14;98880.84;4485749;32;20088;-83
2022/03/16 06:49:28;;;;;;;21.30;10.98;;;;;;;12.33;50.02;98881.97;4471237;32;20084;-82
2022/03/16 06:51:54;;;;;;;20.42;10.75;;;;;;;12.22;50.86;98886.22;4485525;32;20077;-81
2022/03/16 06:54:19;;;;;;;23.98;11.27;;;;;;;12.23;51.75;98883.50;4471245;32;20416;-82
2022/03/16 06:56:44;;;;;;;21.60;12.30;;;;;;;12.22;52.18;98889.69;4485860;32;20194;-80
2022/03/16 06:59:10;;;;;;;22.77;11.73;;;;;;;12.35;51.92;98885.38;4487478;32;20737;-83
2022/03/16 07:01:36;;;;;;;23.35;12.13;;;;;;;12.46;51.68;98881.22;4487548;32;20099;-82
2022/03/16 07:04:02;;;;;;;21.62;12.23;;;;;;;12.47;51.76;98894.34;4487429;32;20092;-80
2022/03/16 07:06:28;;;;;;;24.02;13.55;;;;;;;12.69;52.22;98896.56;4493807;31;20391;-82
2022/03/16 07:08:53;;;;;;;29.10;15.45;;;;;;;12.77;52.00;98891.62;4503523;31;20107;-83
2022/03/16 07:11:18;;;;;;;26.95;15.63;;;;;;;12.82;51.65;98898.44;4488804;31;20110;-81
2022/03/16 07:14:30;;;;;;;28.30;16.30;;;;;;;12.53;52.16;98898.41;4489040;31;20131;-81
2022/03/16 07:16:33;;;;;;;28.83;16.62;;;;;;;12.49;52.25;98903.03;4499108;31;20515;-83
2022/03/16 07:18:59;;;;;;;27.90;15.73;;;;;;;12.28;52.39;98914.91;4473572;32;20574;-79
2022/03/16 07:21:24;;;;;;;26.80;15.45;;;;;;;12.20;52.69;98904.78;4487121;31;20115;-79
2022/03/16 07:23:50;;;;;;;30.55;15.90;;;;;;;12.22;52.45;98902.91;4472739;32;20419;-80
2022/03/16 07:26:15;;;;;;;33.03;16.35;;;;;;;12.28;52.30;98912.25;4486857;31;20424;-81
2022/03/16 07:28:40;;;;;;;29.33;16.23;;;;;;;12.30;52.21;98905.09;4474892;31;20088;-80
2022/03/16 07:31:08;;;;;;;27.02;15.38;;;;;;;12.23;52.25;98904.63;4502750;31;20088;-81
2022/03/16 07:33:34;;;;;;;26.70;15.15;;;;;;;12.29;51.47;98906.88;4488167;31;20166;-81
2022/03/16 07:35:59;;;;;;;28.87;15.75;;;;;;;12.19;51.76;98919.78;4502393;31;20100;-80
2022/03/16 07:38:25;;;;;;;29.23;15.32;;;;;;;12.19;51.26;98914.50;4502642;31;20115;-82
2022/03/16 07:40:50;;;;;;;27.40;15.35;;;;;;;12.09;51.61;98912.50;4488126;31;20131;-81
2022/03/16 07:43:15;;;;;;;27.25;15.48;;;;;;;11.91;51.94;98919.69;4502727;31;20118;-81
2022/03/16 07:45:41;;;;;;;29.80;15.63;;;;;;;11.97;52.22;98927.25;4486299;31;20121;-81
2022/03/16 07:48:06;;;;;;;25.52;15.75;;;;;;;11.87;52.54;98918.16;4500784;31;20091;-80
2022/03/16 07:50:33;;;;;;;26.52;15.00;;;;;;;11.81;52.40;98929.91;4486530;31;20115;-81
2022/03/16 07:52:59;;;;;;;27.67;14.82;;;;;;;11.83;51.57;98929.84;4502554;31;20053;-80
2022/03/16 07:55:24;;;;;;;26.27;14.82;;;;;;;11.88;51.38;98928.63;4487539;31;20126;-81
2022/03/16 07:57:50;;;;;;;29.83;14.18;;;;;;;11.86;51.49;98929.62;4501350;31;20135;-87
2022/03/16 08:00:16;;;;;;;27.65;14.73;;;;;;;11.86;50.82;98933.16;4486939;31;20084;-80
2022/03/16 08:02:43;;;;;;;25.60;14.63;;;;;;;11.80;50.99;98942.28;4498103;31;20156;-78
2022/03/16 08:05:09;;;;;;;26.12;14.35;;;;;;;11.72;50.47;98933.91;4486995;31;20100;-78
2022/03/16 08:07:36;;;;;;;24.05;14.43;;;;;;;11.80;50.35;98931.72;4495107;31;20155;-79
2022/03/16 08:10:02;;;;;;;29.05;14.63;;;;;;;11.82;50.12;98936.91;4497665;31;20141;-75
2022/03/16 08:12:27;;;;;;;25.60;14.00;;;;;;;11.80;50.12;98937.00;4486314;31;20111;-79
2022/03/16 08:14:53;;;;;;;26.42;14.82;;;;;;;11.83;49.93;98943.03;4485613;31;20127;-78
2022/03/16 08:17:18;;;;;;;24.45;14.30;;;;;;;11.98;49.63;98942.19;4471616;32;20173;-76
2022/03/16 08:19:44;;;;;;;29.02;15.07;;;;;;;12.26;49.53;98930.00;4486305;31;20141;-78
2022/03/16 08:22:24;;;;;;;27.20;15.05;;;;;;;12.44;49.20;98928.91;4489334;31;20456;-79
2022/03/16 08:24:53;;;;;;;25.35;14.23;;;;;;;12.57;48.39;98923.72;4487354;31;20467;-79
2022/03/16 08:27:19;;;;;;;22.67;13.05;;;;;;;12.67;48.71;98937.22;4488177;31;20092;-78
2022/03/16 08:29:44;;;;;;;23.30;12.30;;;;;;;12.55;50.76;98936.16;4502677;31;20112;-79
2022/03/16 08:32:10;;;;;;;24.98;13.77;;;;;;;12.48;50.42;98940.16;4502742;31;20143;-78
2022/03/16 08:34:35;;;;;;;25.23;12.82;;;;;;;12.47;51.00;98943.72;4502681;31;20087;-79
2022/03/16 08:37:01;;;;;;;20.35;10.65;;;;;;;12.31;51.89;98944.63;4502895;31;20088;-79
2022/03/16 08:39:26;;;;;;;19.37;10.07;;;;;;;12.22;53.82;98947.81;4501369;31;20085;-79
2022/03/16 08:41:52;;;;;;;18.35;9.18;;;;;;;12.20;54.60;98953.16;4487049;31;20134;-79
2022/03/16 08:44:17;;;;;;;20.55;10.02;;;;;;;11.93;55.65;98949.50;4486919;31;20092;-79
2022/03/16 08:46:43;;;;;;;20.58;10.80;;;;;;;11.79;56.27;98958.19;4485813;32;20145;-78
2022/03/16 08:49:08;;;;;;;22.35;11.48;;;;;;;11.80;56.35;98963.38;4486846;31;20112;-77
2022/03/16 08:51:34;;;;;;;22.27;11.85;;;;;;;11.61;57.09;98968.84;4485652;31;20112;-78
2022/03/16 08:53:59;;;;;;;22.52;12.43;;;;;;;11.31;58.67;98975.81;4486864;31;20363;-78
2022/03/16 08:56:25;;;;;;;21.75;11.88;;;;;;;11.54;58.64;98972.75;4485548;32;20088;-79
2022/03/16 08:58:50;;;;;;;25.62;12.80;;;;;;;11.35;59.23;98977.34;4486810;31;20376;-78
2022/03/16 09:01:16;;;;;;;24.75;13.55;;;;;;;11.39;59.05;98979.72;4486615;31;20114;-78
2022/03/16 09:03:41;;;;;;;25.77;14.05;;;;;;;11.39;59.30;98984.16;4486937;31;20140;-79
2022/03/16 09:06:06;;;;;;;27.60;13.88;;;;;;;11.16;60.22;98985.41;4488172;31;20114;-80
2022/03/16 09:08:32;;;;;;;26.42;14.75;;;;;;;10.90;61.04;99003.47;4487558;31;20118;-77
2022/03/16 09:10:57;;;;;;;25.95;14.25;;;;;;;10.80;61.88;99008.34;4488012;31;20383;-78
2022/03/16 09:13:23;;;;;;;26.77;13.90;;;;;;;10.92;61.41;98998.94;4502422;31;20091;-79
2022/03/16 09:15:51;;;;;;;25.80;13.68;;;;;;;10.89;61.32;99007.00;4487970;31;20348;-80
2022/03/16 09:18:18;;;;;;;27.70;14.95;;;;;;;10.62;62.71;99023.34;4488215;31;20084;-78
2022/03/16 09:20:43;;;;;;;26.65;14.23;;;;;;;10.79;62.36;99006.62;4496355;31;20155;-78
2022/03/16 09:23:09;;;;;;;28.92;14.18;;;;;;;10.45;63.36;99014.56;4485509;32;20153;-78
2022/03/16 09:25:35;;;;;;;28.33;14.75;;;;;;;10.60;63.36;99000.63;4486632;31;20159;-78
2022/03/16 09:28:01;;;;;;;28.60;14.93;;;;;;;10.57;63.23;99014.81;4481008;32;20480;-79
2022/03/16 09:30:27;;;;;;;28.05;13.80;;;;;;;10.43;63.11;99018.16;4484564;31;20093;-80
2022/03/16 09:32:57;;;;;;;25.52;13.90;;;;;;;10.71;62.18;99016.72;4487706;31;20122;-79
2022/03/16 09:35:23;;;;;;;24.80;13.60;;;;;;;10.68;62.15;99013.41;4502431;31;20118;-78
2022/03/16 09:37:50;;;;;;;24.23;13.40;;;;;;;10.80;61.77;99024.16;4502127;31;20348;-80
2022/03/16 09:40:17;;;;;;;24.92;13.40;;;;;;;10.93;61.50;99031.44;4502061;31;20080;-79
2022/03/16 09:42:43;;;;;;;25.20;13.30;;;;;;;10.98;61.21;99030.25;4487862;31;20092;-79
2022/03/16 09:45:17;;;;;;;22.85;12.02;;;;;;;11.00;60.97;99031.03;4502054;31;20168;-80
2022/03/16 09:47:44;;;;;;;22.52;11.57;;;;;;;10.97;61.08;99028.56;4487813;31;20088;-79
2022/03/16 09:50:09;;;;;;;24.15;11.50;;;;;;;10.93;60.52;99037.56;4501919;31;20115;-79
2022/03/16 09:52:35;;;;;;;21.80;11.32;;;;;;;10.50;61.54;99046.81;4486425;31;20123;-79
2022/03/16 09:55:01;;;;;;;23.73;11.05;;;;;;;10.73;61.54;99050.91;4478269;31;20092;-78
2022/03/16 09:57:27;;;;;;;21.87;11.38;;;;;;;10.35;62.44;99056.31;4478489;31;20159;-78
2022/03/16 09:59:52;;;;;;;19.95;10.70;;;;;;;10.22;62.86;99059.53;4479866;31;20398;-78
2022/03/16 10:02:21;;;;;;;21.83;11.15;;;;;;;9.97;63.53;99065.13;4492891;31;20393;-77
2022/03/16 10:04:47;;;;;;;20.55;11.52;;;;;;;10.29;62.89;99054.78;4492978;31;20080;-78
2022/03/16 10:07:12;;;;;;;21.27;12.10;;;;;;;10.43;62.29;99057.66;4477654;31;20152;-78
2022/03/16 10:15:14;;;;;;;24.05;13.48;;;;;;;10.60;61.96;99063.84;4479591;31;20402;-79
2022/03/16 10:17:44;;;;;;;22.90;12.77;;;;;;;10.60;61.54;99056.81;4489389;31;20123;-80
2022/03/16 10:20:11;;;;;;;24.05;13.45;;;;;;;10.81;61.04;99068.03;4489811;31;20100;-80
2022/03/16 10:22:40;;;;;;;23.70;12.23;;;;;;;10.61;61.43;99065.56;4479332;31;20159;-79
2022/03/16 10:25:06;;;;;;;23.50;12.75;;;;;;;10.51;61.64;99064.31;4493856;31;20120;-79
2022/03/16 10:27:38;;;;;;;22.67;12.77;;;;;;;10.17;62.94;99064.16;4490237;31;20147;-79
2022/03/16 10:30:05;;;;;;;23.15;13.07;;;;;;;10.38;62.07;99066.72;4465561;31;20112;-79
2022/03/16 10:32:32;;;;;;;21.70;12.03;;;;;;;10.49;61.47;99067.03;4468648;31;20172;-80
2022/03/16 10:35:05;;;;;;;21.60;11.98;;;;;;;10.39;61.20;99071.91;4478301;31;20096;-79
2022/03/16 10:37:33;;;;;;;21.85;11.60;;;;;;;10.25;62.08;99071.69;4494423;31;20142;-78
2022/03/16 10:39:58;;;;;;;21.37;12.55;;;;;;;10.42;61.61;99068.25;4468118;31;20135;-79
2022/03/16 10:48:19;;;;;;;21.90;11.60;;;;;;;10.77;60.00;99077.00;4423072;32;20123;-80
2022/03/16 10:50:45;;;;;;;20.88;11.88;;;;;;;10.99;59.26;99068.00;4428338;32;20170;-84
2022/03/16 10:53:15;;;;;;;21.60;11.45;;;;;;;10.83;59.46;99083.75;4431663;32;20120;-81
2022/03/16 10:55:41;;;;;;;22.87;11.73;;;;;;;10.75;59.38;99078.87;4430356;32;20121;-82
2022/03/16 10:58:08;;;;;;;20.35;10.48;;;;;;;10.74;59.63;99089.50;4430127;32;20116;-83
2022/03/16 11:00:38;;;;;;;25.30;12.07;;;;;;;10.20;61.09;99086.87;4424115;32;20117;-82
2022/03/16 11:03:09;;;;;;;22.83;11.80;;;;;;;10.32;60.56;99099.47;4432750;32;20110;-81
2022/03/16 11:05:37;;;;;;;23.15;11.80;;;;;;;10.25;60.65;99100.63;4433426;32;20248;-82
2022/03/16 11:08:08;;;;;;;21.30;11.38;;;;;;;10.35;60.43;99098.44;4433356;32;20121;-82
2022/03/16 11:10:38;;;;;;;21.12;11.10;;;;;;;10.45;60.07;99101.47;4430861;32;20129;-82
2022/03/16 11:15:50;;;;;;;19.77;11.07;;;;;;;9.76;61.62;99118.75;4431309;32;20116;-83
2022/03/16 11:18:19;;;;;;;21.45;11.32;;;;;;;9.53;62.35;99123.28;4422329;32;20120;-83
2022/03/16 11:20:49;;;;;;;22.25;11.38;;;;;;;9.62;62.34;99124.66;4437904;32;20155;-84
2022/03/16 11:26:21;;;;;;;24.75;12.90;;;;;;;9.92;61.61;99124.16;4473162;32;20509;-84
2022/03/16 11:29:08;;;;;;;23.20;11.77;;;;;;;9.75;62.32;99135.44;4487634;32;20092;-84
2022/03/16 11:31:34;;;;;;;22.83;11.52;;;;;;;9.92;61.63;99127.62;4473447;32;20489;-84